createdAt,value
2017-09-15T00:00:30.702Z,2.53
2017-09-15T00:01:30.689Z,2.46
2017-09-15T00:02:30.690Z,2.57
2017-09-15T00:03:30.637Z,2.57
2017-09-15T00:04:30.616Z,2.54
2017-09-15T00:05:30.592Z,2.45
2017-09-15T00:06:30.573Z,2.53
2017-09-15T00:07:30.572Z,2.46
2017-09-15T00:08:30.568Z,2.48
2017-09-15T00:09:30.559Z,2.41
2017-09-15T00:10:30.528Z,2.43
2017-09-15T00:11:30.550Z,2.48
2017-09-15T00:12:30.486Z,2.38
2017-09-15T00:13:30.484Z,2.39
2017-09-15T00:14:30.465Z,2.45
2017-09-15T00:15:30.444Z,2.39
2017-09-15T00:16:30.484Z,2.39
2017-09-15T00:17:30.406Z,2.43
2017-09-15T00:18:30.384Z,2.35
2017-09-15T00:19:30.362Z,2.34
2017-09-15T00:20:30.338Z,2.24
2017-09-15T00:21:30.317Z,2.24
2017-09-15T00:22:30.317Z,2.24
2017-09-15T00:23:30.292Z,2.28
2017-09-15T00:24:30.275Z,2.31
2017-09-15T00:25:30.271Z,2.27
2017-09-15T00:26:30.252Z,2.34
2017-09-15T00:27:30.233Z,2.30
2017-09-15T00:28:30.214Z,2.25
2017-09-15T00:29:30.192Z,2.34
2017-09-15T00:30:30.171Z,2.25
2017-09-15T00:31:30.148Z,2.25
2017-09-15T00:32:30.148Z,2.34
2017-09-15T00:33:30.127Z,2.27
2017-09-15T00:34:30.068Z,2.21
2017-09-15T00:35:30.086Z,2.21
2017-09-15T00:36:30.066Z,2.21
2017-09-15T00:37:30.059Z,2.17
2017-09-15T00:38:30.041Z,2.18
2017-09-15T00:39:30.022Z,2.10
2017-09-15T00:40:30.003Z,2.18
2017-09-15T00:41:29.976Z,2.10
2017-09-15T00:42:29.975Z,2.21
2017-09-15T00:43:29.957Z,2.12
2017-09-15T00:44:29.919Z,2.20
2017-09-15T00:45:29.912Z,2.20
2017-09-15T00:46:29.892Z,2.14
2017-09-15T00:47:29.872Z,2.20
2017-09-15T00:48:29.853Z,2.14
2017-09-15T00:49:29.831Z,2.16
2017-09-15T00:50:29.809Z,2.17
2017-09-15T00:51:29.805Z,2.09
2017-09-15T00:52:29.785Z,2.16
2017-09-15T00:53:29.781Z,2.10
2017-09-15T00:54:29.744Z,2.17
2017-09-15T00:55:29.740Z,2.12
2017-09-15T00:56:29.719Z,2.12
2017-09-15T00:57:29.700Z,2.18
2017-09-15T00:58:29.675Z,2.06
2017-09-15T00:59:29.660Z,2.17
2017-09-15T01:00:29.632Z,2.21
2017-09-15T01:01:29.619Z,2.18
2017-09-15T01:02:29.615Z,2.09
2017-09-15T01:03:29.637Z,2.16
2017-09-15T01:04:29.572Z,2.09
2017-09-15T01:05:29.571Z,2.14
2017-09-15T01:06:29.550Z,2.14
2017-09-15T01:07:29.531Z,2.06
2017-09-15T01:08:29.506Z,2.09
2017-09-15T01:09:29.487Z,2.10
2017-09-15T01:10:29.514Z,2.07
2017-09-15T01:11:29.444Z,2.06
2017-09-15T01:12:29.424Z,2.00
2017-09-15T01:13:29.405Z,2.06
2017-09-15T01:14:29.403Z,2.03
2017-09-15T01:15:29.429Z,2.03
2017-09-15T01:16:29.361Z,2.03
2017-09-15T01:17:29.338Z,1.95
2017-09-15T01:18:29.317Z,1.99
2017-09-15T01:19:29.301Z,2.02
2017-09-15T01:20:29.295Z,2.03
2017-09-15T01:21:29.231Z,2.00
2017-09-15T01:22:29.232Z,1.95
2017-09-15T01:23:29.213Z,1.93
2017-09-15T01:24:29.211Z,1.90
2017-09-15T01:25:29.210Z,1.91
2017-09-15T01:26:29.169Z,1.86
2017-09-15T01:27:29.170Z,1.86
2017-09-15T01:28:29.128Z,1.83
2017-09-15T01:29:29.126Z,1.83
2017-09-15T01:30:29.102Z,1.81
2017-09-15T01:31:29.089Z,1.91
2017-09-15T01:32:29.083Z,1.84
2017-09-15T01:33:29.059Z,1.81
2017-09-15T01:34:29.040Z,1.80
2017-09-15T01:35:29.083Z,1.86
2017-09-15T01:36:29.000Z,1.86
2017-09-15T01:37:28.996Z,1.84
2017-09-15T01:38:28.957Z,1.80
2017-09-15T01:39:28.953Z,1.87
2017-09-15T01:40:28.912Z,1.79
2017-09-15T01:41:28.913Z,1.84
2017-09-15T01:42:28.896Z,1.77
2017-09-15T01:43:28.876Z,1.80
2017-09-15T01:44:28.848Z,1.83
2017-09-15T01:45:28.830Z,1.80
2017-09-15T01:46:28.829Z,1.72
2017-09-15T01:47:28.808Z,1.79
2017-09-15T01:48:28.849Z,1.80
2017-09-15T01:49:28.764Z,1.80
2017-09-15T01:50:28.807Z,1.70
2017-09-15T01:51:28.727Z,1.66
2017-09-15T01:52:28.722Z,1.70
2017-09-15T01:53:28.679Z,1.68
2017-09-15T01:54:28.678Z,1.68
2017-09-15T01:55:28.720Z,1.66
2017-09-15T01:56:28.699Z,1.69
2017-09-15T01:57:28.614Z,1.66
2017-09-15T01:58:28.618Z,1.70
2017-09-15T01:59:28.594Z,1.70
2017-09-15T02:00:28.575Z,1.69
2017-09-15T02:01:28.550Z,1.68
2017-09-15T02:02:28.509Z,1.65
2017-09-15T02:03:28.508Z,1.65
2017-09-15T02:04:28.490Z,1.66
2017-09-15T02:05:28.549Z,1.69
2017-09-15T02:06:28.447Z,1.63
2017-09-15T02:07:28.449Z,1.66
2017-09-15T02:08:28.426Z,1.65
2017-09-15T02:09:28.388Z,1.60
2017-09-15T02:10:28.385Z,1.65
2017-09-15T02:11:28.367Z,1.68
2017-09-15T02:12:28.341Z,1.59
2017-09-15T02:13:28.343Z,1.60
2017-09-15T02:14:28.324Z,1.54
2017-09-15T02:15:28.296Z,1.51
2017-09-15T02:16:28.257Z,1.50
2017-09-15T02:17:28.233Z,1.50
2017-09-15T02:18:28.231Z,1.50
2017-09-15T02:19:28.215Z,1.58
2017-09-15T02:20:28.210Z,1.42
2017-09-15T02:21:28.192Z,1.50
2017-09-15T02:22:28.231Z,1.51
2017-09-15T02:23:28.145Z,1.51
2017-09-15T02:24:28.169Z,1.47
2017-09-15T02:25:28.085Z,1.51
2017-09-15T02:26:28.065Z,1.50
2017-09-15T02:27:28.085Z,1.50
2017-09-15T02:28:28.062Z,1.44
2017-09-15T02:29:28.110Z,1.41
2017-09-15T02:30:28.039Z,1.45
2017-09-15T02:31:28.001Z,1.40
2017-09-15T02:32:28.004Z,1.45
2017-09-15T02:33:27.959Z,1.45
2017-09-15T02:34:28.003Z,1.40
2017-09-15T02:35:27.934Z,1.42
2017-09-15T02:36:27.916Z,1.40
2017-09-15T02:37:27.892Z,1.42
2017-09-15T02:38:27.874Z,1.41
2017-09-15T02:39:27.912Z,1.42
2017-09-15T02:40:27.832Z,1.42
2017-09-15T02:41:27.827Z,1.51
2017-09-15T02:42:27.804Z,1.42
2017-09-15T02:43:27.747Z,1.42
2017-09-15T02:44:27.825Z,1.41
2017-09-15T02:45:27.744Z,1.37
2017-09-15T02:46:27.701Z,1.45
2017-09-15T02:47:27.703Z,1.47
2017-09-15T02:48:27.678Z,1.44
2017-09-15T02:49:27.662Z,1.34
2017-09-15T02:50:27.639Z,1.44
2017-09-15T02:51:27.640Z,1.44
2017-09-15T02:52:27.625Z,1.42
2017-09-15T02:53:27.643Z,1.36
2017-09-15T02:54:27.578Z,1.40
2017-09-15T02:55:27.558Z,1.37
2017-09-15T02:56:27.552Z,1.40
2017-09-15T02:57:27.531Z,1.37
2017-09-15T02:58:27.507Z,1.30
2017-09-15T02:59:27.476Z,1.44
2017-09-15T03:00:27.491Z,1.37
2017-09-15T03:01:27.448Z,1.41
2017-09-15T03:02:27.425Z,1.36
2017-09-15T03:03:27.405Z,1.36
2017-09-15T03:04:27.388Z,1.48
2017-09-15T03:05:27.383Z,1.36
2017-09-15T03:06:27.406Z,1.41
2017-09-15T03:07:27.340Z,1.42
2017-09-15T03:08:27.380Z,1.37
2017-09-15T03:09:27.315Z,1.36
2017-09-15T03:10:27.278Z,1.36
2017-09-15T03:11:27.320Z,1.41
2017-09-15T03:12:27.214Z,1.40
2017-09-15T03:13:27.215Z,1.41
2017-09-15T03:14:27.216Z,1.41
2017-09-15T03:15:27.171Z,1.42
2017-09-15T03:16:27.173Z,1.37
2017-09-15T03:17:27.210Z,1.40
2017-09-15T03:18:27.109Z,1.42
2017-09-15T03:19:27.171Z,1.30
2017-09-15T03:20:27.103Z,1.42
2017-09-15T03:21:27.084Z,1.36
2017-09-15T03:22:27.041Z,1.34
2017-09-15T03:23:27.020Z,1.40
2017-09-15T03:24:27.018Z,1.36
2017-09-15T03:25:27.070Z,1.37
2017-09-15T03:26:26.979Z,1.40
2017-09-15T03:27:26.959Z,1.37
2017-09-15T03:28:26.956Z,1.40
2017-09-15T03:29:26.915Z,1.34
2017-09-15T03:30:26.897Z,1.33
2017-09-15T03:31:26.894Z,1.36
2017-09-15T03:32:26.874Z,1.34
2017-09-15T03:33:26.853Z,1.30
2017-09-15T03:34:26.851Z,1.34
2017-09-15T03:35:26.835Z,1.34
2017-09-15T03:36:26.796Z,1.33
2017-09-15T03:37:26.768Z,1.32
2017-09-15T03:38:26.750Z,1.32
2017-09-15T03:39:26.727Z,1.24
2017-09-15T03:40:26.703Z,1.32
2017-09-15T03:41:26.700Z,1.27
2017-09-15T03:42:26.683Z,1.23
2017-09-15T03:43:26.742Z,1.24
2017-09-15T03:44:26.642Z,1.23
2017-09-15T03:45:26.619Z,1.16
2017-09-15T03:46:26.600Z,1.29
2017-09-15T03:47:26.596Z,1.16
2017-09-15T03:48:26.573Z,1.22
2017-09-15T03:49:26.556Z,1.16
2017-09-15T03:50:26.535Z,1.18
2017-09-15T03:51:26.536Z,1.15
2017-09-15T03:52:26.511Z,1.15
2017-09-15T03:53:26.440Z,1.14
2017-09-15T03:54:26.450Z,1.15
2017-09-15T03:55:26.445Z,1.18
2017-09-15T03:56:26.425Z,1.24
2017-09-15T03:57:26.405Z,1.18
2017-09-15T03:58:26.383Z,1.11
2017-09-15T03:59:26.361Z,1.23
2017-09-15T04:00:26.341Z,1.20
2017-09-15T04:01:26.324Z,1.24
2017-09-15T04:02:26.301Z,1.23
2017-09-15T04:03:26.302Z,1.18
2017-09-15T04:04:26.238Z,1.22
2017-09-15T04:05:26.254Z,1.22
2017-09-15T04:06:26.145Z,1.20
2017-09-15T04:07:26.219Z,1.23
2017-09-15T04:08:26.194Z,1.20
2017-09-15T04:09:26.173Z,1.18
2017-09-15T04:10:26.177Z,1.16
2017-09-15T04:11:26.197Z,1.14
2017-09-15T04:12:26.132Z,1.15
2017-09-15T04:13:26.105Z,1.20
2017-09-15T04:14:26.083Z,1.20
2017-09-15T04:15:26.089Z,1.23
2017-09-15T04:16:26.021Z,1.18
2017-09-15T04:17:25.981Z,1.26
2017-09-15T04:18:26.002Z,1.14
2017-09-15T04:19:26.002Z,1.06
2017-09-15T04:20:25.980Z,1.18
2017-09-15T04:21:25.923Z,1.15
2017-09-15T04:22:25.935Z,1.23
2017-09-15T04:23:25.919Z,1.16
2017-09-15T04:24:25.894Z,1.23
2017-09-15T04:25:25.807Z,1.18
2017-09-15T04:26:25.854Z,1.15
2017-09-15T04:27:25.850Z,1.14
2017-09-15T04:28:25.815Z,1.14
2017-09-15T04:29:25.811Z,1.15
2017-09-15T04:30:25.787Z,1.11
2017-09-15T04:31:25.786Z,1.14
2017-09-15T04:32:25.751Z,1.18
2017-09-15T04:33:25.724Z,1.15
2017-09-15T04:34:25.769Z,1.18
2017-09-15T04:35:25.617Z,1.15
2017-09-15T04:36:25.685Z,1.15
2017-09-15T04:37:25.638Z,1.15
2017-09-15T04:38:25.616Z,1.18
2017-09-15T04:39:25.629Z,1.12
2017-09-15T04:40:25.574Z,1.12
2017-09-15T04:41:25.514Z,1.16
2017-09-15T04:42:25.493Z,1.18
2017-09-15T04:43:25.514Z,1.14
2017-09-15T04:44:25.434Z,1.09
2017-09-15T04:45:25.490Z,1.15
2017-09-15T04:46:25.403Z,1.06
2017-09-15T04:47:25.453Z,1.06
2017-09-15T04:48:25.470Z,1.14
2017-09-15T04:49:25.349Z,1.14
2017-09-15T04:50:25.475Z,1.12
2017-09-15T04:51:25.390Z,1.09
2017-09-15T04:52:25.385Z,1.02
2017-09-15T04:53:25.384Z,0.98
2017-09-15T04:54:25.342Z,1.11
2017-09-15T04:55:25.340Z,1.08
2017-09-15T04:56:25.306Z,1.05
2017-09-15T04:57:25.282Z,1.08
2017-09-15T04:58:25.261Z,1.12
2017-09-15T04:59:25.237Z,1.12
2017-09-15T05:00:25.255Z,1.06
2017-09-15T05:01:25.275Z,1.11
2017-09-15T05:02:25.171Z,1.06
2017-09-15T05:03:25.089Z,1.12
2017-09-15T05:04:25.152Z,1.05
2017-09-15T05:05:25.131Z,1.11
2017-09-15T05:06:25.109Z,1.12
2017-09-15T05:07:25.149Z,1.08
2017-09-15T05:08:25.067Z,1.04
2017-09-15T05:09:25.045Z,1.00
2017-09-15T05:10:25.041Z,1.05
2017-09-15T05:11:25.024Z,1.12
2017-09-15T05:12:24.997Z,1.12
2017-09-15T05:13:24.978Z,1.06
2017-09-15T05:14:24.958Z,1.02
2017-09-15T05:15:24.938Z,1.06
2017-09-15T05:16:24.918Z,1.04
2017-09-15T05:17:24.895Z,1.12
2017-09-15T05:18:24.896Z,1.11
2017-09-15T05:19:24.870Z,1.02
2017-09-15T05:20:24.850Z,1.14
2017-09-15T05:21:24.852Z,1.09
2017-09-15T05:22:24.810Z,1.09
2017-09-15T05:23:24.790Z,1.12
2017-09-15T05:24:24.709Z,1.12
2017-09-15T05:25:24.768Z,1.11
2017-09-15T05:26:24.747Z,1.12
2017-09-15T05:27:24.732Z,1.20
2017-09-15T05:28:24.701Z,1.14
2017-09-15T05:29:24.683Z,1.16
2017-09-15T05:30:24.661Z,1.18
2017-09-15T05:31:24.646Z,1.18
2017-09-15T05:32:24.685Z,1.24
2017-09-15T05:33:24.618Z,1.23
2017-09-15T05:34:24.599Z,1.26
2017-09-15T05:35:24.578Z,1.23
2017-09-15T05:36:24.534Z,1.18
2017-09-15T05:37:24.556Z,1.16
2017-09-15T05:38:24.536Z,1.23
2017-09-15T05:39:24.518Z,1.23
2017-09-15T05:40:24.492Z,1.26
2017-09-15T05:41:24.472Z,1.24
2017-09-15T05:42:24.512Z,1.18
2017-09-15T05:43:24.433Z,1.27
2017-09-15T05:44:24.403Z,1.18
2017-09-15T05:45:24.406Z,1.27
2017-09-15T05:46:24.284Z,1.23
2017-09-15T05:47:24.345Z,1.27
2017-09-15T05:48:24.323Z,1.24
2017-09-15T05:49:24.303Z,1.26
2017-09-15T05:50:24.300Z,1.24
2017-09-15T05:51:24.278Z,1.23
2017-09-15T05:52:24.257Z,1.34
2017-09-15T05:53:24.234Z,1.34
2017-09-15T05:54:24.240Z,1.30
2017-09-15T05:55:24.193Z,1.33
2017-09-15T05:56:24.172Z,1.32
2017-09-15T05:57:24.152Z,1.34
2017-09-15T05:58:24.144Z,1.47
2017-09-15T05:59:24.127Z,1.37
2017-09-15T06:00:24.109Z,1.36
2017-09-15T06:01:24.083Z,1.36
2017-09-15T06:02:24.070Z,1.42
2017-09-15T06:03:24.045Z,1.37
2017-09-15T06:04:24.046Z,1.48
2017-09-15T06:05:24.026Z,1.34
2017-09-15T06:06:24.004Z,1.54
2017-09-15T06:07:24.045Z,1.66
2017-09-15T06:08:24.029Z,2.03
2017-09-15T06:09:23.942Z,2.07
2017-09-15T06:10:23.940Z,2.59
2017-09-15T06:11:23.825Z,3.08
2017-09-15T06:12:23.918Z,3.29
2017-09-15T06:13:23.859Z,3.69
2017-09-15T06:14:23.877Z,3.98
2017-09-15T06:15:23.853Z,4.26
2017-09-15T06:16:23.835Z,4.63
2017-09-15T06:17:23.817Z,4.94
2017-09-15T06:18:23.792Z,4.78
2017-09-15T06:19:23.790Z,4.85
2017-09-15T06:20:23.747Z,5.03
2017-09-15T06:21:23.753Z,5.36
2017-09-15T06:22:23.747Z,5.58
2017-09-15T06:23:23.772Z,5.74
2017-09-15T06:24:23.770Z,5.68
2017-09-15T06:25:23.624Z,5.54
2017-09-15T06:26:23.686Z,5.18
2017-09-15T06:27:23.665Z,5.12
2017-09-15T06:28:23.644Z,4.96
2017-09-15T06:29:23.641Z,4.82
2017-09-15T06:30:23.666Z,4.55
2017-09-15T06:31:23.625Z,4.50
2017-09-15T06:32:23.661Z,4.48
2017-09-15T06:33:23.490Z,4.44
2017-09-15T06:34:23.557Z,4.55
2017-09-15T06:35:23.556Z,5.12
2017-09-15T06:36:23.534Z,5.24
2017-09-15T06:37:23.521Z,5.18
2017-09-15T06:38:23.475Z,5.28
2017-09-15T06:39:23.473Z,5.40
2017-09-15T06:40:23.456Z,5.42
2017-09-15T06:41:23.448Z,5.03
2017-09-15T06:42:23.430Z,4.94
2017-09-15T06:43:23.427Z,4.92
2017-09-15T06:44:23.407Z,4.97
2017-09-15T06:45:23.408Z,5.38
2017-09-15T06:46:23.386Z,5.78
2017-09-15T06:47:23.362Z,6.36
2017-09-15T06:48:23.368Z,6.49
2017-09-15T06:49:23.344Z,6.30
2017-09-15T06:50:23.322Z,6.04
2017-09-15T06:51:23.303Z,5.83
2017-09-15T06:52:23.299Z,5.63
2017-09-15T06:53:23.282Z,5.53
2017-09-15T06:54:23.258Z,5.67
2017-09-15T06:55:23.257Z,5.76
2017-09-15T06:56:23.234Z,5.68
2017-09-15T06:57:23.235Z,5.63
2017-09-15T06:58:23.218Z,5.76
2017-09-15T06:59:23.138Z,5.68
2017-09-15T07:00:23.192Z,5.58
2017-09-15T07:01:23.129Z,5.54
2017-09-15T07:02:23.129Z,5.40
2017-09-15T07:03:23.090Z,5.04
2017-09-15T07:04:23.076Z,4.77
2017-09-15T07:05:23.112Z,4.50
2017-09-15T07:06:23.091Z,4.37
2017-09-15T07:07:23.045Z,4.66
2017-09-15T07:08:23.048Z,4.75
2017-09-15T07:09:23.045Z,4.96
2017-09-15T07:10:22.985Z,5.21
2017-09-15T07:11:23.001Z,5.48
2017-09-15T07:12:23.007Z,5.67
2017-09-15T07:13:23.002Z,5.76
2017-09-15T07:14:22.923Z,5.93
2017-09-15T07:15:22.980Z,6.30
2017-09-15T07:16:22.958Z,6.61
2017-09-15T07:17:22.944Z,7.32
2017-09-15T07:18:22.983Z,7.55
2017-09-15T07:19:22.920Z,7.67
2017-09-15T07:20:22.918Z,7.97
2017-09-15T07:21:22.902Z,8.34
2017-09-15T07:22:22.904Z,8.61
2017-09-15T07:23:22.838Z,8.73
2017-09-15T07:24:22.874Z,9.20
2017-09-15T07:25:22.813Z,9.48
2017-09-15T07:26:22.835Z,9.75
2017-09-15T07:27:22.856Z,10.27
2017-09-15T07:28:22.836Z,10.79
2017-09-15T07:29:22.792Z,11.37
2017-09-15T07:30:22.773Z,12.21
2017-09-15T07:31:22.728Z,12.77
2017-09-15T07:32:22.768Z,13.19
2017-09-15T07:33:22.725Z,13.46
2017-09-15T07:34:22.728Z,13.75
2017-09-15T07:35:22.688Z,13.75
2017-09-15T07:36:22.770Z,14.02
2017-09-15T07:37:22.690Z,14.54
2017-09-15T07:38:22.685Z,14.88
2017-09-15T07:39:22.599Z,15.09
2017-09-15T07:40:22.644Z,15.43
2017-09-15T07:41:22.625Z,15.47
2017-09-15T07:42:22.625Z,15.56
2017-09-15T07:43:22.606Z,15.96
2017-09-15T07:44:22.600Z,15.68
2017-09-15T07:45:22.581Z,15.94
2017-09-15T07:46:22.561Z,16.34
2017-09-15T07:47:22.577Z,16.82
2017-09-15T07:48:22.459Z,17.04
2017-09-15T07:49:22.557Z,17.16
2017-09-15T07:50:22.484Z,17.25
2017-09-15T07:51:22.517Z,16.79
2017-09-15T07:52:22.520Z,16.63
2017-09-15T07:53:22.513Z,16.78
2017-09-15T07:54:22.476Z,17.56
2017-09-15T07:55:22.560Z,17.21
2017-09-15T07:56:22.471Z,17.58
2017-09-15T07:57:22.473Z,17.43
2017-09-15T07:58:22.451Z,17.03
2017-09-15T07:59:22.434Z,16.91
2017-09-15T08:00:22.432Z,16.60
2017-09-15T08:01:22.390Z,16.75
2017-09-15T08:02:22.432Z,16.82
2017-09-15T08:03:22.435Z,16.79
2017-09-15T08:04:22.412Z,16.91
2017-09-15T08:05:22.410Z,16.48
2017-09-15T08:06:22.410Z,16.35
2017-09-15T08:07:22.394Z,16.28
2017-09-15T08:08:22.407Z,16.17
2017-09-15T08:09:22.347Z,16.25
2017-09-15T08:10:22.408Z,16.08
2017-09-15T08:11:22.408Z,16.08
2017-09-15T08:12:22.347Z,15.41
2017-09-15T08:13:22.408Z,15.02
2017-09-15T08:14:22.391Z,15.13
2017-09-15T08:15:22.409Z,14.98
2017-09-15T08:16:22.366Z,14.61
2017-09-15T08:17:22.365Z,14.00
2017-09-15T08:18:22.391Z,13.99
2017-09-15T08:19:22.348Z,13.48
2017-09-15T08:20:22.407Z,12.89
2017-09-15T08:21:22.367Z,12.77
2017-09-15T08:22:22.351Z,12.71
2017-09-15T08:23:22.367Z,11.99
2017-09-15T08:24:22.430Z,11.65
2017-09-15T08:25:22.411Z,11.58
2017-09-15T08:26:22.429Z,11.04
2017-09-15T08:27:22.413Z,10.89
2017-09-15T08:28:22.429Z,10.85
2017-09-15T08:29:22.368Z,10.60
2017-09-15T08:30:22.449Z,10.40
2017-09-15T08:31:22.387Z,10.15
2017-09-15T08:32:22.391Z,10.15
2017-09-15T08:33:22.436Z,10.05
2017-09-15T08:34:22.436Z,9.72
2017-09-15T08:35:22.434Z,9.65
2017-09-15T08:36:22.412Z,9.40
2017-09-15T08:37:22.433Z,9.36
2017-09-15T08:38:22.449Z,9.57
2017-09-15T08:39:22.455Z,9.50
2017-09-15T08:40:22.411Z,9.36
2017-09-15T08:41:22.389Z,9.18
2017-09-15T08:42:22.452Z,9.26
2017-09-15T08:43:22.386Z,9.20
2017-09-15T08:44:22.449Z,9.13
2017-09-15T08:45:22.431Z,9.08
2017-09-15T08:46:22.429Z,9.08
2017-09-15T08:47:22.430Z,9.04
2017-09-15T08:48:22.390Z,9.15
2017-09-15T08:49:22.429Z,9.29
2017-09-15T08:50:22.341Z,9.18
2017-09-15T08:51:22.343Z,9.11
2017-09-15T08:52:22.337Z,9.17
2017-09-15T08:53:22.332Z,9.29
2017-09-15T08:54:22.370Z,9.56
2017-09-15T08:55:22.314Z,9.51
2017-09-15T08:56:22.358Z,9.33
2017-09-15T08:57:22.303Z,9.14
2017-09-15T08:58:22.294Z,9.01
2017-09-15T08:59:22.339Z,8.80
2017-09-15T09:00:22.280Z,8.61
2017-09-15T09:01:22.279Z,8.53
2017-09-15T09:02:22.264Z,8.30
2017-09-15T09:03:22.259Z,8.11
2017-09-15T09:04:22.300Z,8.11
2017-09-15T09:05:22.247Z,8.02
2017-09-15T09:06:22.232Z,8.00
2017-09-15T09:07:22.272Z,8.10
2017-09-15T09:08:22.219Z,8.18
2017-09-15T09:09:22.204Z,8.22
2017-09-15T09:10:22.199Z,8.30
2017-09-15T09:11:22.185Z,8.40
2017-09-15T09:12:22.226Z,8.52
2017-09-15T09:13:22.164Z,8.76
2017-09-15T09:14:22.155Z,8.84
2017-09-15T09:15:22.143Z,9.04
2017-09-15T09:16:22.133Z,9.15
2017-09-15T09:17:22.175Z,9.11
2017-09-15T09:18:22.124Z,9.23
2017-09-15T09:19:22.104Z,9.50
2017-09-15T09:20:22.144Z,9.50
2017-09-15T09:21:22.087Z,9.57
2017-09-15T09:22:22.121Z,9.56
2017-09-15T09:23:22.063Z,9.40
2017-09-15T09:24:22.053Z,9.29
2017-09-15T09:25:22.042Z,9.10
2017-09-15T09:26:22.031Z,9.10
2017-09-15T09:27:22.019Z,9.17
2017-09-15T09:28:22.009Z,9.28
2017-09-15T09:29:22.000Z,9.33
2017-09-15T09:30:22.038Z,9.53
2017-09-15T09:31:21.977Z,9.90
2017-09-15T09:32:21.967Z,10.33
2017-09-15T09:33:21.962Z,10.32
2017-09-15T09:34:21.950Z,10.30
2017-09-15T09:35:21.985Z,10.08
2017-09-15T09:36:21.975Z,9.83
2017-09-15T09:37:21.914Z,9.50
2017-09-15T09:38:21.908Z,9.36
2017-09-15T09:39:21.891Z,9.48
2017-09-15T09:40:21.932Z,9.35
2017-09-15T09:41:21.871Z,9.43
2017-09-15T09:42:21.887Z,9.38
2017-09-15T09:43:21.853Z,9.46
2017-09-15T09:44:21.836Z,9.42
2017-09-15T09:45:21.826Z,9.38
2017-09-15T09:46:21.871Z,9.36
2017-09-15T09:47:21.804Z,9.39
2017-09-15T09:48:21.793Z,9.26
2017-09-15T09:49:21.782Z,9.33
2017-09-15T09:50:21.776Z,9.28
2017-09-15T09:51:21.809Z,9.17
2017-09-15T09:52:21.747Z,8.94
2017-09-15T09:53:21.783Z,9.13
2017-09-15T09:54:21.724Z,9.31
2017-09-15T09:55:21.718Z,9.75
2017-09-15T09:56:21.752Z,9.91
2017-09-15T09:57:21.727Z,9.86
2017-09-15T09:58:21.679Z,9.76
2017-09-15T09:59:21.673Z,9.60
2017-09-15T10:00:21.659Z,9.71
2017-09-15T10:01:21.646Z,9.61
2017-09-15T10:02:21.634Z,9.51
2017-09-15T10:03:21.623Z,9.51
2017-09-15T10:04:21.662Z,9.54
2017-09-15T10:05:21.602Z,9.58
2017-09-15T10:06:21.588Z,9.60
2017-09-15T10:07:21.578Z,9.72
2017-09-15T10:08:21.566Z,9.58
2017-09-15T10:09:21.556Z,9.40
2017-09-15T10:10:21.541Z,9.33
2017-09-15T10:11:21.533Z,9.15
2017-09-15T10:12:21.574Z,9.29
2017-09-15T10:13:21.513Z,9.17
2017-09-15T10:14:21.496Z,9.10
2017-09-15T10:15:21.534Z,9.13
2017-09-15T10:16:21.472Z,9.15
2017-09-15T10:17:21.461Z,8.99
2017-09-15T10:18:21.454Z,9.02
2017-09-15T10:19:21.443Z,8.96
2017-09-15T10:20:21.427Z,8.99
2017-09-15T10:21:21.414Z,9.18
2017-09-15T10:22:21.453Z,9.20
2017-09-15T10:23:21.390Z,9.04
2017-09-15T10:24:21.379Z,9.04
2017-09-15T10:25:21.367Z,9.08
2017-09-15T10:26:21.356Z,9.10
2017-09-15T10:27:21.404Z,9.32
2017-09-15T10:28:21.333Z,9.32
2017-09-15T10:29:21.320Z,9.39
2017-09-15T10:30:21.309Z,9.42
2017-09-15T10:31:21.296Z,9.31
2017-09-15T10:32:21.335Z,9.20
2017-09-15T10:33:21.273Z,9.10
2017-09-15T10:34:21.261Z,8.96
2017-09-15T10:35:21.249Z,9.01
2017-09-15T10:36:21.244Z,8.98
2017-09-15T10:37:21.276Z,9.05
2017-09-15T10:38:21.214Z,8.86
2017-09-15T10:39:21.201Z,8.80
2017-09-15T10:40:21.191Z,8.77
2017-09-15T10:41:21.180Z,8.81
2017-09-15T10:42:21.167Z,8.80
2017-09-15T10:43:21.210Z,8.86
2017-09-15T10:44:21.198Z,8.70
2017-09-15T10:45:21.130Z,8.77
2017-09-15T10:46:21.119Z,8.73
2017-09-15T10:47:21.108Z,8.70
2017-09-15T10:48:21.100Z,8.65
2017-09-15T10:49:21.088Z,8.62
2017-09-15T10:50:21.119Z,8.66
2017-09-15T10:51:21.064Z,8.59
2017-09-15T10:52:21.046Z,8.62
2017-09-15T10:53:21.040Z,8.62
2017-09-15T10:54:21.023Z,8.59
2017-09-15T10:55:21.060Z,8.56
2017-09-15T10:56:20.996Z,8.43
2017-09-15T10:57:20.992Z,8.43
2017-09-15T10:58:20.972Z,8.43
2017-09-15T10:59:20.960Z,8.47
2017-09-15T11:00:20.998Z,8.48
2017-09-15T11:01:20.936Z,8.45
2017-09-15T11:02:20.921Z,8.47
2017-09-15T11:03:20.915Z,8.47
2017-09-15T11:04:20.899Z,8.45
2017-09-15T11:05:21.035Z,8.38
2017-09-15T11:06:20.883Z,8.43
2017-09-15T11:07:21.051Z,8.40
2017-09-15T11:08:20.920Z,8.48
2017-09-15T11:09:20.927Z,8.63
2017-09-15T11:10:20.923Z,8.73
2017-09-15T11:11:20.921Z,8.95
2017-09-15T11:12:20.969Z,9.04
2017-09-15T11:13:20.787Z,9.08
2017-09-15T11:14:20.954Z,8.96
2017-09-15T11:15:20.843Z,8.79
2017-09-15T11:16:20.840Z,8.74
2017-09-15T11:17:20.839Z,8.50
2017-09-15T11:18:20.774Z,8.43
2017-09-15T11:19:20.717Z,8.43
2017-09-15T11:20:20.699Z,8.56
2017-09-15T11:21:20.692Z,8.66
2017-09-15T11:22:20.673Z,8.74
2017-09-15T11:23:20.660Z,8.89
2017-09-15T11:24:20.650Z,9.13
2017-09-15T11:25:20.636Z,9.31
2017-09-15T11:26:20.674Z,9.24
2017-09-15T11:27:20.611Z,9.17
2017-09-15T11:28:20.600Z,9.18
2017-09-15T11:29:20.618Z,9.01
2017-09-15T11:30:20.577Z,9.15
2017-09-15T11:31:20.616Z,9.15
2017-09-15T11:32:20.551Z,9.23
2017-09-15T11:33:20.545Z,9.33
2017-09-15T11:34:20.527Z,9.36
2017-09-15T11:35:20.515Z,9.38
2017-09-15T11:36:20.557Z,9.39
2017-09-15T11:37:20.490Z,9.36
2017-09-15T11:38:20.482Z,9.38
2017-09-15T11:39:20.465Z,9.39
2017-09-15T11:40:20.454Z,9.50
2017-09-15T11:41:20.491Z,9.64
2017-09-15T11:42:20.483Z,9.74
2017-09-15T11:43:20.422Z,9.83
2017-09-15T11:44:20.406Z,9.71
2017-09-15T11:45:20.393Z,9.68
2017-09-15T11:46:20.386Z,9.35
2017-09-15T11:47:20.432Z,9.23
2017-09-15T11:48:20.417Z,9.20
2017-09-15T11:49:20.370Z,9.31
2017-09-15T11:50:20.346Z,9.53
2017-09-15T11:51:20.329Z,9.39
2017-09-15T11:52:20.370Z,9.40
2017-09-15T11:53:20.304Z,9.43
2017-09-15T11:54:20.304Z,9.47
2017-09-15T11:55:20.287Z,9.33
2017-09-15T11:56:20.264Z,9.36
2017-09-15T11:57:20.263Z,9.38
2017-09-15T11:58:20.244Z,9.46
2017-09-15T11:59:20.284Z,9.42
2017-09-15T12:00:20.282Z,9.36
2017-09-15T12:01:20.220Z,9.20
2017-09-15T12:02:20.266Z,9.17
2017-09-15T12:03:20.185Z,9.14
2017-09-15T12:04:20.246Z,9.24
2017-09-15T12:05:20.240Z,9.23
2017-09-15T12:06:20.138Z,9.39
2017-09-15T12:07:20.134Z,9.48
2017-09-15T12:08:20.114Z,9.58
2017-09-15T12:09:20.108Z,9.71
2017-09-15T12:10:20.145Z,9.74
2017-09-15T12:11:20.079Z,9.72
2017-09-15T12:12:20.067Z,9.81
2017-09-15T12:13:20.055Z,9.93
2017-09-15T12:14:20.043Z,10.05
2017-09-15T12:15:20.037Z,10.23
2017-09-15T12:16:20.025Z,10.34
2017-09-15T12:17:20.015Z,10.33
2017-09-15T12:18:19.996Z,10.44
2017-09-15T12:19:19.986Z,10.25
2017-09-15T12:20:20.022Z,9.96
2017-09-15T12:21:19.962Z,10.11
2017-09-15T12:22:19.950Z,10.09
2017-09-15T12:23:19.939Z,10.36
2017-09-15T12:24:19.932Z,10.63
2017-09-15T12:25:19.965Z,10.85
2017-09-15T12:26:19.904Z,10.96
2017-09-15T12:27:19.892Z,11.00
2017-09-15T12:28:19.880Z,10.89
2017-09-15T12:29:19.870Z,10.78
2017-09-15T12:30:19.908Z,10.45
2017-09-15T12:31:19.852Z,10.23
2017-09-15T12:32:19.836Z,10.15
2017-09-15T12:33:19.824Z,10.09
2017-09-15T12:34:19.813Z,10.27
2017-09-15T12:35:19.857Z,10.12
2017-09-15T12:36:19.839Z,10.15
2017-09-15T12:37:19.778Z,10.07
2017-09-15T12:38:19.768Z,10.17
2017-09-15T12:39:19.755Z,10.18
2017-09-15T12:40:19.748Z,10.14
2017-09-15T12:41:19.782Z,9.96
2017-09-15T12:42:19.776Z,10.07
2017-09-15T12:43:19.709Z,10.08
2017-09-15T12:44:19.697Z,9.96
2017-09-15T12:45:19.686Z,9.94
2017-09-15T12:46:19.673Z,9.99
2017-09-15T12:47:19.713Z,10.05
2017-09-15T12:48:19.651Z,10.01
2017-09-15T12:49:19.638Z,10.02
2017-09-15T12:50:19.683Z,10.05
2017-09-15T12:51:19.616Z,10.15
2017-09-15T12:52:19.604Z,10.14
2017-09-15T12:53:19.596Z,10.27
2017-09-15T12:54:19.629Z,10.15
2017-09-15T12:55:19.573Z,10.02
2017-09-15T12:56:19.607Z,9.89
2017-09-15T12:57:19.546Z,9.84
2017-09-15T12:58:19.533Z,9.60
2017-09-15T12:59:19.522Z,9.40
2017-09-15T13:00:19.515Z,9.43
2017-09-15T13:01:19.548Z,9.24
2017-09-15T13:02:19.485Z,9.14
2017-09-15T13:03:19.473Z,8.99
2017-09-15T13:04:19.461Z,8.96
2017-09-15T13:05:19.455Z,8.94
2017-09-15T13:06:19.487Z,8.95
2017-09-15T13:07:19.430Z,8.81
2017-09-15T13:08:19.412Z,8.79
2017-09-15T13:09:19.407Z,8.81
2017-09-15T13:10:19.393Z,8.76
2017-09-15T13:11:19.426Z,8.68
2017-09-15T13:12:19.368Z,8.61
2017-09-15T13:13:19.352Z,8.61
2017-09-15T13:14:19.338Z,8.61